Latest Weather Observations for Hamilton

IDV60801

Issued at 7:02 pm EST Friday 28 August 2015 (issued every 30 minutes, with the page automatically refreshed every 10 minutes)

About weather observations | Map of weather stations | Latest weather observations for VIC | Other Formats
Station Details ID: 090173 Name: HAMILTON AIRPORT Lat: -37.65 Lon: 142.06 Height: 241.1 m
Data from the previous 72 hours. | See also: Recent months at Hamilton
Date/Time
EST
Temp
°C
App
Temp
°C
Dew
Point
Rel
Hum
%
Delta-T
°C
Wind Press
QNH
hPa
Press
MSL
hPa
Rain
since 9 am
mm
Dir
 
Spd
km/h
Gust
km/h
Spd
kts
Gust
kts
28/07:00pm 7.1 2.0 4.2 82 1.3 SE 20 28 11 15 1027.3 1027.7 3.0
28/06:30pm 7.2 2.2 4.5 83 1.2 SSE 20 28 11 15 1027.0 1027.4 3.0
28/06:01pm 7.7 2.5 5.3 85 1.1 SE 22 28 12 15 1026.7 1027.1 3.0
28/06:00pm 7.7 2.5 5.3 85 1.1 SE 22 28 12 15 1026.7 1027.1 3.0
28/05:45pm 8.0 3.5 6.3 89 0.8 SE 19 24 10 13 1026.5 1026.9 3.0
28/05:42pm 7.9 3.2 6.2 89 0.8 SE 20 30 11 16 1026.5 1026.9 3.0
28/05:30pm 7.9 2.0 5.9 87 0.9 SE 26 35 14 19 1026.4 1026.8 3.0
28/05:09pm 8.1 2.8 6.6 90 0.7 SSE 24 30 13 16 1026.1 1026.5 3.0
28/05:00pm 8.1 2.8 6.7 91 0.7 SE 24 32 13 17 1026.1 1026.5 3.0
28/04:30pm 9.5 5.1 7.4 87 1.0 SSW 20 35 11 19 1026.0 1026.4 3.0
28/04:00pm 10.6 6.8 7.7 82 1.4 SW 17 22 9 12 1025.8 1026.2 3.0
28/03:30pm 11.4 8.0 7.7 78 1.8 SW 15 22 8 12 1025.8 1026.2 2.8
28/03:00pm 10.1 7.6 8.2 88 0.9 SSW 11 15 6 8 1026.0 1026.4 2.8
28/02:45pm 9.7 6.0 8.1 90 0.8 SSW 17 20 9 11 1026.2 1026.6 2.8
28/02:30pm 9.2 5.8 7.8 91 0.7 SE 15 22 8 12 1026.3 1026.7 2.6
28/02:20pm 9.2 5.3 7.0 86 1.0 SSE 17 22 9 12 1026.4 1026.8 1.0
28/02:00pm 11.7 8.4 6.6 71 2.4 SSW 13 19 7 10 1026.4 1026.8 0.0
28/01:30pm 11.2 7.4 5.9 70 2.5 SSW 15 20 8 11 1026.6 1027.0 0.0
28/01:00pm 10.2 7.6 6.2 76 1.9 SSW 9 11 5 6 1027.0 1027.4 0.0
28/12:30pm 11.2 8.7 6.7 74 2.2 SSE 9 15 5 8 1027.4 1027.8 0.0
28/12:00pm 9.8 6.5 6.2 78 1.7 SE 13 17 7 9 1027.8 1028.2 0.0
28/11:30am 10.4 6.7 6.4 76 1.9 S 15 19 8 10 1027.9 1028.3 0.0
28/11:00am 9.8 5.9 5.2 73 2.1 SSW 15 24 8 13 1028.0 1028.4 0.0
28/10:30am 10.1 5.9 5.5 73 2.1 SSW 17 22 9 12 1028.0 1028.4 0.0
28/10:00am 9.4 5.8 4.8 73 2.1 SSW 13 19 7 10 1028.0 1028.4 0.0
28/09:30am 8.8 5.7 5.5 80 1.5 SSW 11 13 6 7 1028.0 1028.4 0.0
28/09:00am 8.2 4.8 5.7 84 1.1 SSW 13 15 7 8 1028.0 1028.4 0.6
28/08:30am 7.5 4.5 6.1 91 0.6 SW 11 13 6 7 1027.8 1028.2 0.6
28/08:00am 7.2 4.3 6.6 96 0.3 SW 11 13 6 7 1027.6 1028.0 0.6
28/07:30am 6.9 4.0 6.3 96 0.3 SSW 11 15 6 8 1027.3 1027.7 0.6
28/07:00am 6.5 3.9 6.1 97 0.2 SW 9 11 5 6 1027.0 1027.4 0.6
28/06:30am 6.3 3.6 5.7 96 0.3 SW 9 9 5 5 1026.6 1027.0 0.6
28/06:00am 5.7 2.5 5.1 96 0.3 S 11 13 6 7 1026.5 1026.9 0.6
28/05:30am 6.4 3.0 5.8 96 0.3 SSW 13 19 7 10 1026.4 1026.8 0.6
28/05:00am 6.1 2.6 5.4 95 0.3 S 13 17 7 9 1026.2 1026.6 0.6
28/04:45am 6.3 2.5 5.7 96 0.3 S 15 19 8 10 1026.2 1026.6 0.6
28/04:30am 6.4 2.6 5.7 95 0.3 S 15 20 8 11 1026.1 1026.5 0.6
28/04:00am 7.2 2.7 6.3 94 0.4 S 19 24 10 13 1026.0 1026.4 0.6
28/03:47am 7.3 3.3 6.6 95 0.3 S 17 20 9 11 1026.0 1026.4 0.6
28/03:44am 7.2 3.2 6.5 95 0.3 S 17 20 9 11 1026.0 1026.4 0.6
28/03:30am 7.4 3.0 6.5 94 0.4 S 19 24 10 13 1025.9 1026.3 0.6
28/03:00am 7.9 4.4 7.1 95 0.4 SSW 15 19 8 10 1026.1 1026.5 0.6
28/02:30am 8.0 4.5 7.2 95 0.4 SSW 15 22 8 12 1026.2 1026.6 0.6
28/02:01am 7.8 4.7 7.1 95 0.3 S 13 17 7 9 1026.3 1026.7 0.6
28/02:00am 7.9 4.8 7.1 95 0.4 S 13 17 7 9 1026.3 1026.7 0.6
28/01:41am 7.9 4.0 7.1 95 0.4 SSW 17 22 9 12 1026.4 1026.8 0.2
28/01:30am 8.1 5.0 7.3 95 0.4 SSW 13 17 7 9 1026.4 1026.8 0.0
28/01:26am 8.0 4.9 7.1 94 0.4 S 13 17 7 9 1026.4 1026.8 0.0
28/01:00am 7.8 5.0 6.9 94 0.4 SSW 11 15 6 8 1026.3 1026.7 0.0
28/12:30am 7.9 4.0 7.0 94 0.4 S 17 20 9 11 1026.2 1026.6 0.0
28/12:00am 8.0 4.4 6.8 92 0.6 SSW 15 19 8 10 1026.1 1026.5 0.0
 
Date/Time
EST
Temp
°C
App
Temp
°C
Dew
Point
Rel
Hum
%
Delta-T
°C
Wind Press
QNH
hPa
Press
MSL
hPa
Rain
since 9 am
mm
Dir
 
Spd
km/h
Gust
km/h
Spd
kts
Gust
kts
27/11:30pm 6.5 3.0 5.6 94 0.4 SSW 13 17 7 9 1026.1 1026.5 0.0
27/11:00pm 6.3 2.7 5.1 92 0.5 S 13 15 7 8 1025.9 1026.3 0.0
27/10:30pm 7.7 3.6 6.3 91 0.6 S 17 20 9 11 1025.9 1026.3 0.0
27/10:00pm 8.6 4.2 7.2 91 0.7 S 20 28 11 15 1026.0 1026.4 0.0
27/09:30pm 9.1 4.7 7.2 88 0.9 S 20 28 11 15 1025.8 1026.2 0.0
27/09:00pm 9.1 4.3 7.2 88 0.9 SSE 22 30 12 16 1025.5 1025.9 0.0
27/08:58pm 9.1 4.3 7.2 88 0.9 SSE 22 30 12 16 1025.5 1025.9 0.0
27/08:30pm 9.5 4.4 7.6 88 0.9 S 24 33 13 18 1025.3 1025.7 0.0
27/08:00pm 9.6 4.5 7.7 88 0.9 S 24 32 13 17 1024.9 1025.2 0.0
27/07:30pm 9.7 5.1 8.1 90 0.8 S 22 30 12 16 1024.6 1024.9 0.0
27/07:00pm 9.7 4.7 8.0 89 0.8 SSE 24 30 13 16 1024.4 1024.7 0.0
27/06:31pm 9.5 5.2 7.9 90 0.8 S 20 28 11 15 1024.0 1024.3 0.0
27/06:30pm 9.5 5.2 7.9 90 0.8 S 20 28 11 15 1024.0 1024.3 0.0
27/06:00pm 10.1 4.7 8.2 88 0.9 S 26 32 14 17 1023.3 1023.7 0.0
27/05:30pm 10.9 7.2 7.8 81 1.5 SSW 17 28 9 15 1022.9 1023.3 0.0
27/05:00pm 11.3 5.7 7.2 76 2.0 S 26 33 14 18 1022.4 1022.8 0.0
27/04:30pm 12.6 8.4 7.5 71 2.5 SSW 19 22 10 12 1022.1 1022.5 0.0
27/04:00pm 12.2 7.0 7.3 72 2.4 SSW 24 35 13 19 1022.0 1022.4 0.0
27/03:30pm 12.6 8.3 7.1 69 2.7 SSW 19 26 10 14 1021.8 1022.2 0.0
27/03:00pm 12.4 8.0 7.5 72 2.4 S 20 30 11 16 1021.8 1022.2 0.0
27/02:30pm 13.8 9.5 6.9 63 3.4 SSW 19 26 10 14 1021.6 1022.0 0.0
27/02:00pm 13.9 10.2 6.3 60 3.7 SW 15 22 8 12 1021.9 1022.3 0.0
27/01:30pm 13.1 9.4 8.0 71 2.6 SW 17 22 9 12 1022.2 1022.6 0.0
27/01:00pm 12.5 8.7 7.4 71 2.5 WSW 17 24 9 13 1022.4 1022.8 0.0
27/12:30pm 12.2 9.1 8.7 79 1.8 WSW 15 19 8 10 1022.6 1023.0 0.0
27/12:00pm 11.2 8.0 8.4 83 1.4 WSW 15 20 8 11 1022.9 1023.3 0.0
27/11:57am 10.7 6.8 7.0 78 1.8 SW 17 20 9 11 1022.9 1023.3 0.0
27/11:30am 10.9 7.2 7.8 81 1.5 WSW 17 22 9 12 1023.1 1023.5 0.0
27/11:00am 9.8 6.7 7.2 84 1.2 SW 13 17 7 9 1023.3 1023.7 0.0
27/10:56am 9.8 6.7 7.4 85 1.2 SW 13 17 7 9 1023.3 1023.7 0.0
27/10:48am 9.9 7.0 8.0 88 0.9 WSW 13 17 7 9 1023.4 1023.8 0.0
27/10:30am 9.2 6.2 7.5 89 0.8 SW 13 17 7 9 1023.4 1023.8 0.0
27/10:25am 9.3 6.3 7.7 90 0.8 WSW 13 17 7 9 1023.4 1023.8 0.0
27/10:07am 9.0 6.5 8.4 96 0.3 W 11 17 6 9 1023.2 1023.6 0.0
27/10:00am 9.2 7.2 8.7 97 0.2 WSW 9 13 5 7 1023.2 1023.6 0.0
27/09:30am 7.8 5.1 7.4 97 0.2 WSW 11 15 6 8 1023.2 1023.6 0.0
27/09:00am 7.5 5.5 7.1 97 0.2 W 7 9 4 5 1023.1 1023.5 0.0
27/08:30am 7.4 5.4 7.0 97 0.2 W 7 9 4 5 1023.0 1023.4 0.0
27/08:29am 7.3 5.3 6.9 97 0.2 W 7 9 4 5 1023.0 1023.4 0.0
27/08:00am 6.8 4.3 6.4 97 0.2 WSW 9 13 5 7 1022.6 1023.0 0.0
27/07:30am 5.8 3.1 5.4 97 0.2 WSW 9 11 5 6 1022.4 1022.8 0.0
27/07:18am 5.9 3.6 5.5 97 0.2 WSW 7 9 4 5 1022.3 1022.7 0.0
27/07:00am 6.3 4.0 5.9 97 0.2 W 7 9 4 5 1021.9 1022.3 0.0
27/06:53am 6.4 4.2 6.0 97 0.2 W 7 9 4 5 1021.9 1022.3 0.0
27/06:30am 6.3 4.2 5.7 96 0.3 W 6 7 3 4 1021.9 1022.3 0.0
27/06:00am 6.7 4.5 6.3 97 0.2 WNW 7 11 4 6 1021.6 1022.0 0.0
27/05:30am 6.7 4.1 6.1 96 0.3 W 9 11 5 6 1021.5 1021.8 0.0
27/05:15am 6.3 3.6 5.7 96 0.3 WNW 9 11 5 6 1021.4 1021.7 0.0
27/05:00am 6.8 4.2 6.2 96 0.3 W 9 11 5 6 1021.2 1021.5 0.0
27/04:54am 6.8 4.2 6.2 96 0.3 W 9 11 5 6 1021.1 1021.4 0.0
27/04:43am 6.6 4.0 6.0 96 0.3 W 9 11 5 6 1021.0 1021.3 0.0
27/04:30am 6.3 3.6 5.7 96 0.3 WSW 9 11 5 6 1021.0 1021.3 0.0
27/04:28am 6.2 3.5 5.5 95 0.3 WSW 9 11 5 6 1021.0 1021.3 0.0
27/04:00am 6.8 4.2 6.2 96 0.3 W 9 11 5 6 1021.2 1021.5 0.0
27/03:30am 6.1 3.7 5.4 95 0.3 WNW 7 9 4 5 1021.3 1021.6 0.0
27/03:00am 6.3 4.0 5.6 95 0.3 W 7 7 4 4 1021.4 1021.7 0.0
27/02:30am 6.5 3.8 5.6 94 0.4 W 9 11 5 6 1021.7 1022.1 0.0
27/02:00am 6.6 4.3 5.6 93 0.4 NW 7 11 4 6 1021.9 1022.3 0.0
27/01:30am 7.3 6.4 5.9 91 0.6 CALM 0 4 0 2 1022.0 1022.4 0.0
27/01:00am 8.0 5.9 6.5 90 0.7 N 7 9 4 5 1022.2 1022.6 0.0
27/12:30am 7.9 5.4 6.4 90 0.7 N 9 9 5 5 1022.5 1022.9 0.0
27/12:00am 7.8 5.6 6.4 91 0.6 N 7 9 4 5 1022.5 1022.9 0.0
 
Date/Time
EST
Temp
°C
App
Temp
°C
Dew
Point
Rel
Hum
%
Delta-T
°C
Wind Press
QNH
hPa
Press
MSL
hPa
Rain
since 9 am
mm
Dir
 
Spd
km/h
Gust
km/h
Spd
kts
Gust
kts
26/11:30pm 8.1 5.6 6.7 91 0.7 NNW 9 11 5 6 1022.7 1023.1 0.0
26/11:00pm 8.4 5.9 6.7 89 0.8 N 9 9 5 5 1022.9 1023.3 0.0
26/10:30pm 8.8 6.8 7.1 89 0.8 N 7 7 4 4 1023.1 1023.5 0.0
26/10:00pm 8.9 6.9 7.2 89 0.8 NNE 7 7 4 4 1022.9 1023.3 0.0
26/09:30pm 8.8 7.0 7.3 90 0.7 NE 6 7 3 4 1023.0 1023.4 0.0
26/09:00pm 9.0 7.2 7.3 89 0.8 N 6 7 3 4 1023.1 1023.5 0.0
26/08:30pm 9.4 7.1 7.5 88 0.9 NNW 9 11 5 6 1023.0 1023.4 0.0
26/08:00pm 9.7 7.8 7.6 87 1.0 NE 7 9 4 5 1023.0 1023.4 0.0
26/07:30pm 10.1 8.2 7.5 84 1.3 NE 7 11 4 6 1023.1 1023.5 0.0
26/07:00pm 10.3 8.4 7.5 83 1.4 ENE 7 9 4 5 1022.9 1023.3 0.0
26/06:30pm 10.5 8.6 7.4 81 1.5 NE 7 9 4 5 1022.7 1023.1 0.0
26/06:00pm 11.1 9.3 7.2 77 1.9 ENE 6 7 3 4 1022.5 1022.9 0.0
26/05:30pm 11.5 9.6 7.4 76 2.0 ENE 7 9 4 5 1022.4 1022.8 0.0
26/05:00pm 11.9 10.1 7.2 73 2.3 NE 6 7 3 4 1022.3 1022.7 0.0
26/04:30pm 12.1 10.2 6.6 69 2.7 NNW 6 11 3 6 1022.3 1022.7 0.0
26/04:00pm 12.7 10.5 6.1 64 3.1 W 7 9 4 5 1022.2 1022.6 0.0
26/03:30pm 12.8 10.5 5.9 63 3.3 WSW 7 9 4 5 1022.3 1022.7 0.0
26/03:00pm 12.7 10.6 5.8 63 3.3 W 6 9 3 5 1022.5 1022.9 0.0
26/02:30pm 13.0 10.7 5.9 62 3.4 WNW 7 11 4 6 1022.7 1023.1 0.0
26/02:00pm 13.2 11.4 5.6 60 3.6 W 4 9 2 5 1022.8 1023.2 0.0
26/01:30pm 12.6 10.2 5.3 61 3.4 N 7 9 4 5 1023.1 1023.5 0.0
26/01:00pm 12.6 9.9 5.5 62 3.3 NW 9 15 5 8 1023.3 1023.7 0.0
26/12:30pm 13.2 11.2 6.3 63 3.3 WNW 6 13 3 7 1023.7 1024.1 0.0
26/12:00pm 12.7 10.1 6.3 65 3.1 NNW 9 15 5 8 1024.3 1024.6 0.0
26/11:30am 12.1 9.4 5.7 65 3.0 N 9 13 5 7 1024.5 1024.8 0.0
26/11:00am 11.7 9.2 6.6 71 2.4 NE 9 13 5 7 1025.0 1025.3 0.0
26/10:30am 10.4 7.5 6.7 78 1.8 ENE 11 15 6 8 1025.2 1025.6 0.0
26/10:00am 9.0 6.1 6.6 85 1.1 E 11 15 6 8 1025.3 1025.7 0.0
26/09:30am 8.1 4.8 6.6 90 0.7 ESE 13 17 7 9 1025.6 1026.0 0.0
26/09:00am 7.2 3.9 6.3 94 0.4 ESE 13 15 7 8 1025.6 1026.0 0.0
26/08:30am 6.4 3.4 5.8 96 0.3 ESE 11 13 6 7 1025.6 1026.0 0.0
26/08:00am 5.3 2.8 4.7 96 0.3 ESE 7 9 4 5 1025.5 1025.9 0.0
26/07:30am 4.6 1.6 4.0 96 0.3 ESE 9 9 5 5 1025.5 1025.9 0.0
26/07:00am 4.2 0.7 3.5 95 0.3 SE 11 11 6 6 1025.3 1025.7 0.0
26/06:30am 4.6 1.2 3.9 95 0.3 SE 11 13 6 7 1025.2 1025.6 0.0
26/06:00am 5.2 1.9 4.5 95 0.3 SE 11 13 6 7 1025.3 1025.7 0.0
26/05:30am 5.6 2.0 4.9 95 0.3 SE 13 17 7 9 1025.2 1025.6 0.0
26/05:00am 5.6 1.9 4.7 94 0.4 SE 13 15 7 8 1025.3 1025.7 0.0
26/04:30am 5.8 2.9 4.9 94 0.4 SE 9 13 5 7 1025.3 1025.7 0.0
26/04:00am 6.1 2.9 5.1 93 0.4 SE 11 13 6 7 1025.3 1025.7 0.0
26/03:30am 6.3 2.7 5.1 92 0.5 SE 13 13 7 7 1025.4 1025.8 0.0
26/03:00am 6.4 2.5 5.2 92 0.5 SE 15 19 8 10 1025.8 1026.2 0.0
26/02:30am 6.5 3.0 5.3 92 0.5 ESE 13 17 7 9 1026.1 1026.5 0.0
26/02:00am 6.6 2.3 5.2 91 0.6 ESE 17 22 9 12 1026.2 1026.6 0.0
26/01:30am 6.8 2.1 5.3 90 0.7 SE 19 24 10 13 1026.5 1026.9 0.0
26/01:00am 6.8 2.1 5.3 90 0.7 SE 19 24 10 13 1026.7 1027.1 0.0
26/12:30am 7.0 2.3 5.3 89 0.8 SE 19 24 10 13 1026.8 1027.2 0.0
26/12:00am 7.3 2.5 5.4 88 0.9 ESE 20 24 11 13 1026.9 1027.3 0.0
 
Date/Time
EST
Temp
°C
App
Temp
°C
Dew
Point
Rel
Hum
%
Delta-T
°C
Wind Press
QNH
hPa
Press
MSL
hPa
Rain
since 9 am
mm
Dir
 
Spd
km/h
Gust
km/h
Spd
kts
Gust
kts
25/11:30pm 7.2 2.0 5.3 88 0.9 ESE 22 28 12 15 1027.0 1027.4 0.0
25/11:00pm 7.4 2.6 5.4 87 0.9 ESE 20 24 11 13 1027.2 1027.6 0.0
25/10:30pm 7.5 2.8 5.3 86 1.0 SE 19 24 10 13 1027.3 1027.7 0.0
25/10:00pm 7.7 3.0 5.2 84 1.1 SE 19 24 10 13 1027.4 1027.8 0.0
25/09:30pm 7.4 2.1 5.0 85 1.1 ESE 22 32 12 17 1027.5 1027.9 0.0
25/09:00pm 7.5 2.6 5.1 85 1.1 SE 20 28 11 15 1027.4 1027.8 0.0
25/08:30pm 7.2 2.3 5.0 86 1.0 SE 20 28 11 15 1027.3 1027.7 0.0
25/08:00pm 7.2 2.8 5.0 86 1.0 SE 17 22 9 12 1027.4 1027.8 0.0
25/07:30pm 7.8 2.9 4.9 82 1.3 SSE 20 24 11 13 1027.3 1027.7 0.0

Other Formats:

Comma delimited format used in spreadsheet applications
http://www.bom.gov.au/fwo/IDV60801/IDV60801.94829.axf

JavaScript Object Notation format (JSON) in row-major order
http://www.bom.gov.au/fwo/IDV60801/IDV60801.94829.json